Terminal Aerodrome Forecast
Issued by NWS

Home | Current Version | Previous Version | Graphics & Text | Print | Product List | Glossary On
Versions: 1 2 3 4 5 6 7 8 9 10 11 12 13 14 15
166
FTUS43 KFGF 220434 AAA
TAFBJI
TAF AMD
KBJI 220434Z 2205/2224 VRB03KT 1/2SM FG OVC004
     FM220600 00000KT 3/4SM BR OVC003
     FM221800 00000KT P6SM OVC003=

USA.gov is the U.S. government's official web portal to all federal, state and local government web resources and services.